createdAt,value
2022-08-25T00:14:25.015Z,15.1
2022-08-25T00:30:07.048Z,16.2
2022-08-25T00:45:49.098Z,17.29
2022-08-25T01:01:31.487Z,16.29
2022-08-25T01:17:13.934Z,17.2
2022-08-25T01:32:56.100Z,17
2022-08-25T01:48:38.235Z,16.2
2022-08-25T02:04:20.681Z,20.6
2022-08-25T02:20:02.721Z,20.29
2022-08-25T02:35:45.413Z,22.8
2022-08-25T02:51:27.529Z,20.1
2022-08-25T03:07:10.395Z,23.9
2022-08-25T03:22:53.129Z,26.2
2022-08-25T03:38:35.747Z,25.9
2022-08-25T03:54:18.087Z,27
2022-08-25T04:10:00.815Z,28.4
2022-08-25T04:25:43.611Z,30.8
2022-08-25T04:41:25.606Z,31.5
2022-08-25T04:42:12.869Z,29.3
2022-08-25T04:57:54.931Z,34.2
2022-08-25T05:13:37.502Z,35.5
2022-08-25T05:29:20.362Z,28.1
2022-08-25T05:45:02.388Z,29.9
2022-08-25T06:00:44.344Z,34.7
2022-08-25T06:16:26.711Z,24.7
2022-08-25T06:32:09.153Z,23.5
2022-08-25T06:47:51.503Z,25.2
2022-08-25T07:03:33.624Z,22.5
2022-08-25T07:19:16.306Z,19.9
2022-08-25T07:34:58.797Z,21
2022-08-25T07:50:41.310Z,23
2022-08-25T08:06:23.850Z,20.6
2022-08-25T08:22:06.611Z,17
2022-08-25T08:37:48.925Z,18.29
2022-08-25T08:53:30.849Z,17.4
2022-08-25T09:09:13.391Z,15.4
2022-08-25T09:24:55.543Z,11.3
2022-08-25T09:40:37.547Z,9.89
2022-08-25T09:56:20.318Z,9.6
2022-08-25T10:12:02.494Z,9.8
2022-08-25T10:27:44.748Z,11.2
2022-08-25T10:43:27.042Z,10.5
2022-08-25T10:59:09.293Z,11.1
2022-08-25T11:14:51.348Z,11.3
2022-08-25T11:30:33.330Z,10.8
2022-08-25T11:46:16.169Z,13.1
2022-08-25T12:01:58.416Z,10.1
2022-08-25T12:17:40.396Z,9.89
2022-08-25T12:33:22.256Z,11.5
2022-08-25T12:49:04.535Z,10.1
2022-08-25T13:04:46.958Z,10.4
2022-08-25T13:20:28.838Z,13.1
2022-08-25T13:36:10.815Z,11.4
2022-08-25T13:51:53.559Z,11
2022-08-25T14:07:35.934Z,12.5
2022-08-25T14:23:18.460Z,12.4
2022-08-25T14:39:00.681Z,13.1
2022-08-25T14:54:43.205Z,12.2
2022-08-25T15:10:25.240Z,13.9
2022-08-25T15:26:07.990Z,19.79
2022-08-25T15:41:50.117Z,17
2022-08-25T15:57:32.253Z,16.7
2022-08-25T16:13:14.626Z,15.9
2022-08-25T16:28:56.680Z,17.4
2022-08-25T16:44:38.907Z,16.29
2022-08-25T17:00:21.040Z,15.7
2022-08-25T17:16:03.973Z,15.8
2022-08-25T17:31:46.812Z,13.7
2022-08-25T17:47:28.960Z,18.6
2022-08-25T18:03:10.986Z,12.8
2022-08-25T18:18:53.894Z,14.1
2022-08-25T18:34:36.730Z,15.8
2022-08-25T18:50:19.537Z,13.3
2022-08-25T19:06:02.406Z,12.1
2022-08-25T19:21:44.724Z,12.6
2022-08-25T19:37:26.713Z,12.1
2022-08-25T19:53:09.608Z,13
2022-08-25T20:08:51.751Z,14.6
2022-08-25T20:24:34.635Z,16.9
2022-08-25T20:40:16.845Z,14.5
2022-08-25T20:55:59.575Z,18.1
2022-08-25T21:11:41.636Z,19.6
2022-08-25T21:27:24.105Z,16.4
2022-08-25T21:43:07.041Z,17.1
2022-08-25T21:58:49.828Z,20.5
2022-08-25T22:14:32.165Z,19.29
2022-08-25T22:30:14.957Z,17.29
2022-08-25T22:45:57.607Z,17.9
2022-08-25T23:01:40.431Z,18.6
2022-08-25T23:17:22.640Z,18.1
2022-08-25T23:33:04.731Z,16.79
2022-08-25T23:48:46.877Z,17.29
